Time;durP1;ratioP1;P1;durP2;ratioP2;P2;SDS_P1;SDS_P2;PMS_P1;PMS_P2;Temp;Humidity;BMP_temperature;BMP_pressure;BME280_temperature;BME280_humidity;BME280_pressure;Samples;Min_cycle;Max_cycle;Signal;HPM_P1;HPM_P2
2021/06/14 00:00:31;;;;;;;13.80;7.70;;;12.70;99.90;;;;;;4978356;28;20829;-49
2021/06/14 00:41:01;;;;;;;8.90;7.17;;;12.20;99.90;;;;;;4998259;23;20463;-44
2021/06/14 01:23:16;;;;;;;8.10;6.80;;;11.60;99.90;;;;;;5002848;28;20477;-52
2021/06/14 01:25:51;;;;;;;8.37;7.53;;;11.60;99.90;;;;;;4950033;28;20563;-44
2021/06/14 01:28:22;;;;;;;10.07;6.93;;;11.50;99.90;;;;;;5004945;28;20460;-48
2021/06/14 01:30:52;;;;;;;10.67;7.63;;;11.50;99.90;;;;;;5005139;28;20456;-45
2021/06/14 01:33:26;;;;;;;8.30;7.57;;;11.50;99.90;;;;;;5004549;28;20523;-44
2021/06/14 01:35:58;;;;;;;10.23;7.47;;;11.40;99.90;;;;;;5004820;28;20495;-47
2021/06/14 01:38:28;;;;;;;9.23;7.50;;;11.40;99.90;;;;;;5004811;28;20456;-47
2021/06/14 01:41:01;;;;;;;9.43;8.27;;;11.30;99.90;;;;;;5004362;28;20456;-45
2021/06/14 01:43:35;;;;;;;9.97;7.80;;;11.30;99.90;;;;;;5004547;28;20471;-44
2021/06/14 01:46:06;;;;;;;8.83;7.97;;;11.30;99.90;;;;;;5005073;28;20466;-44
2021/06/14 01:48:34;;;;;;;9.93;7.80;;;11.30;99.90;;;;;;5005009;28;20464;-44
2021/06/14 01:51:02;;;;;;;7.53;6.63;;;11.20;99.90;;;;;;5004842;28;20563;-45
2021/06/14 01:53:30;;;;;;;10.93;7.37;;;11.20;99.90;;;;;;5004414;28;20465;-44
2021/06/14 01:55:58;;;;;;;8.20;6.97;;;11.10;99.90;;;;;;5004586;28;20456;-43
2021/06/14 01:58:25;;;;;;;9.63;7.20;;;11.10;99.90;;;;;;5003754;28;20500;-46
2021/06/14 02:00:55;;;;;;;8.40;7.20;;;11.10;99.90;;;;;;5004453;28;20555;-45
2021/06/14 02:03:23;;;;;;;10.30;7.90;;;11.10;99.90;;;;;;4998970;28;20503;-46
2021/06/14 02:05:51;;;;;;;12.30;7.60;;;11.00;99.90;;;;;;5001743;28;20484;-50
2021/06/14 02:08:21;;;;;;;8.30;7.30;;;11.00;99.90;;;;;;4987530;28;20522;-45
2021/06/14 02:10:49;;;;;;;8.83;7.93;;;10.90;99.90;;;;;;5004194;28;20474;-47
2021/06/14 02:13:19;;;;;;;13.37;8.10;;;11.00;99.90;;;;;;5004065;28;20453;-52
2021/06/14 02:15:46;;;;;;;10.87;7.17;;;11.00;99.90;;;;;;5004138;28;20730;-45
2021/06/14 02:18:16;;;;;;;8.47;6.40;;;10.90;99.90;;;;;;5003539;28;20476;-48
2021/06/14 02:20:45;;;;;;;13.50;8.60;;;10.80;99.90;;;;;;5003973;28;20596;-45
2021/06/14 02:23:13;;;;;;;8.43;7.60;;;10.80;99.90;;;;;;5002005;28;21028;-45
2021/06/14 02:25:40;;;;;;;7.83;7.07;;;10.80;99.90;;;;;;5000551;28;20464;-43
2021/06/14 02:28:07;;;;;;;9.00;7.80;;;10.80;99.90;;;;;;5000555;28;20469;-44
2021/06/14 02:30:35;;;;;;;7.90;7.10;;;10.70;99.90;;;;;;4992596;28;20568;-46
2021/06/14 02:33:02;;;;;;;8.93;6.70;;;10.70;99.90;;;;;;5001023;28;20464;-45
2021/06/14 02:35:30;;;;;;;9.03;7.70;;;10.70;99.90;;;;;;5000229;28;20806;-44
2021/06/14 02:38:02;;;;;;;8.23;6.60;;;10.70;99.90;;;;;;5000711;28;20468;-44
2021/06/14 02:40:31;;;;;;;9.40;8.40;;;10.70;99.90;;;;;;5000785;28;20435;-42
2021/06/14 02:43:00;;;;;;;9.17;7.60;;;10.60;99.90;;;;;;5000697;28;20502;-44
2021/06/14 02:45:29;;;;;;;8.27;7.47;;;10.70;99.90;;;;;;5000817;28;20531;-45
2021/06/14 02:47:57;;;;;;;8.40;7.50;;;10.60;99.90;;;;;;5000254;28;20492;-45
2021/06/14 02:50:26;;;;;;;9.73;7.10;;;10.60;99.90;;;;;;5000220;28;20469;-48
2021/06/14 02:52:56;;;;;;;9.17;7.87;;;10.60;99.90;;;;;;5000429;28;20483;-48
2021/06/14 02:55:29;;;;;;;10.40;7.70;;;10.60;99.90;;;;;;5000010;28;20531;-45
2021/06/14 02:57:59;;;;;;;8.37;6.37;;;10.60;99.90;;;;;;4999922;28;20469;-50
2021/06/14 03:00:28;;;;;;;11.60;7.57;;;10.70;99.90;;;;;;5000035;28;20447;-49
2021/06/14 03:02:59;;;;;;;8.10;7.30;;;10.70;99.90;;;;;;4997021;28;20496;-47
2021/06/14 03:05:27;;;;;;;8.40;6.67;;;10.70;99.90;;;;;;4996134;28;20840;-52
2021/06/14 03:07:58;;;;;;;8.30;7.10;;;10.80;99.90;;;;;;4999926;28;20912;-45
2021/06/14 03:10:30;;;;;;;8.90;7.13;;;10.80;99.90;;;;;;4999770;28;20535;-51
2021/06/14 03:13:01;;;;;;;8.00;6.37;;;10.80;99.90;;;;;;4999932;28;20456;-46
2021/06/14 03:15:28;;;;;;;7.77;6.50;;;10.90;99.90;;;;;;4999476;28;20897;-44
2021/06/14 03:17:57;;;;;;;6.37;5.60;;;11.00;99.90;;;;;;4999787;28;20467;-44
2021/06/14 03:20:26;;;;;;;10.00;7.23;;;11.00;99.90;;;;;;4999585;28;20457;-44
2021/06/14 03:22:55;;;;;;;8.73;6.17;;;11.00;99.90;;;;;;4999531;28;20501;-45
2021/06/14 03:25:23;;;;;;;9.00;7.03;;;11.10;99.90;;;;;;4999342;28;20439;-47
2021/06/14 03:27:52;;;;;;;8.23;6.40;;;11.00;99.90;;;;;;4999756;28;20464;-44
2021/06/14 03:30:23;;;;;;;11.60;6.30;;;11.00;99.90;;;;;;4999321;28;20475;-48
2021/06/14 03:32:53;;;;;;;10.37;6.50;;;11.10;99.90;;;;;;4999898;28;20465;-49
2021/06/14 03:35:22;;;;;;;9.07;6.40;;;11.10;99.90;;;;;;4999598;28;20464;-48
2021/06/14 03:37:49;;;;;;;9.33;7.40;;;11.10;99.90;;;;;;4999500;28;20469;-47
2021/06/14 03:40:19;;;;;;;8.33;7.50;;;11.20;99.90;;;;;;4998883;28;20476;-51
2021/06/14 03:42:46;;;;;;;9.17;6.60;;;11.30;99.90;;;;;;4999343;28;20493;-51
2021/06/14 03:45:15;;;;;;;14.47;6.20;;;11.30;99.90;;;;;;4998839;28;20468;-46
2021/06/14 03:47:42;;;;;;;10.53;6.90;;;11.30;99.90;;;;;;4999133;28;20480;-52
2021/06/14 03:50:13;;;;;;;8.63;7.00;;;11.30;99.90;;;;;;4998966;28;20761;-47
2021/06/14 03:52:42;;;;;;;8.60;6.30;;;11.30;99.90;;;;;;4999280;28;20488;-44
2021/06/14 03:55:13;;;;;;;8.00;6.27;;;11.40;99.90;;;;;;4999436;28;20465;-48
2021/06/14 03:57:42;;;;;;;7.10;5.80;;;11.40;99.90;;;;;;4999213;28;20754;-46
2021/06/14 04:00:11;;;;;;;11.27;6.40;;;11.50;99.90;;;;;;4998675;28;20465;-49
2021/06/14 04:02:39;;;;;;;9.07;6.60;;;11.50;99.90;;;;;;4995147;28;20495;-46
2021/06/14 04:05:07;;;;;;;11.67;7.03;;;11.60;99.90;;;;;;4994020;28;20556;-50
2021/06/14 04:07:35;;;;;;;7.90;6.73;;;11.70;99.90;;;;;;4998717;28;20882;-50
2021/06/14 04:10:02;;;;;;;10.33;6.50;;;11.80;99.90;;;;;;4998655;28;20724;-42
2021/06/14 04:12:31;;;;;;;8.10;7.23;;;11.90;99.90;;;;;;4999209;28;20461;-41
2021/06/14 04:15:00;;;;;;;11.10;6.20;;;11.90;99.90;;;;;;4999428;28;20495;-42
2021/06/14 04:17:29;;;;;;;8.40;6.40;;;12.00;99.90;;;;;;4998966;28;20461;-41
2021/06/14 04:19:56;;;;;;;7.10;6.40;;;12.10;99.90;;;;;;4998896;28;20728;-43
2021/06/14 04:22:23;;;;;;;9.23;7.30;;;12.20;99.90;;;;;;4998560;28;20804;-43
2021/06/14 04:24:50;;;;;;;8.80;6.90;;;12.30;99.90;;;;;;4998711;28;20540;-48
2021/06/14 04:27:17;;;;;;;12.67;6.03;;;12.40;99.90;;;;;;4997858;28;20648;-43
2021/06/14 04:29:45;;;;;;;10.20;6.73;;;12.40;99.90;;;;;;4998300;28;20915;-43
2021/06/14 04:32:13;;;;;;;6.87;6.17;;;12.50;99.90;;;;;;4998286;28;20460;-46
2021/06/14 04:34:40;;;;;;;7.10;6.40;;;12.60;99.90;;;;;;4998428;28;20469;-47
2021/06/14 04:37:07;;;;;;;7.07;5.70;;;12.70;99.90;;;;;;4998462;28;20462;-46
2021/06/14 04:39:35;;;;;;;10.73;7.00;;;12.80;99.90;;;;;;4989843;28;20467;-48
2021/06/14 04:42:02;;;;;;;7.30;6.17;;;12.90;99.90;;;;;;4997648;28;20492;-46
2021/06/14 04:44:29;;;;;;;7.53;6.73;;;13.00;99.90;;;;;;4998189;28;20468;-49
2021/06/14 04:46:56;;;;;;;7.70;5.40;;;13.10;99.90;;;;;;4997797;28;20465;-44
2021/06/14 04:49:24;;;;;;;6.90;6.20;;;13.20;99.90;;;;;;4998431;28;20920;-50
2021/06/14 04:51:52;;;;;;;6.77;5.90;;;13.30;99.90;;;;;;4997899;28;20439;-50
2021/06/14 04:54:19;;;;;;;8.40;6.07;;;13.40;99.90;;;;;;4998082;28;20447;-50
2021/06/14 04:56:46;;;;;;;9.07;6.40;;;13.50;99.90;;;;;;4997599;28;20472;-47
2021/06/14 04:59:15;;;;;;;8.17;6.10;;;13.60;99.90;;;;;;4997682;28;20447;-43
2021/06/14 05:01:43;;;;;;;7.70;5.73;;;13.70;99.90;;;;;;4997678;28;20491;-44
2021/06/14 05:04:13;;;;;;;8.37;5.67;;;13.80;99.90;;;;;;4989486;28;20584;-44
2021/06/14 05:06:41;;;;;;;5.57;4.93;;;13.90;99.90;;;;;;4993894;28;20457;-44
2021/06/14 05:09:09;;;;;;;7.07;5.60;;;14.00;99.90;;;;;;4997872;28;20771;-43
2021/06/14 05:11:38;;;;;;;6.90;6.20;;;14.10;99.90;;;;;;4989839;28;20468;-47
2021/06/14 05:14:06;;;;;;;7.67;5.30;;;14.20;99.90;;;;;;4997212;28;20468;-47
2021/06/14 05:16:33;;;;;;;11.17;5.50;;;14.30;99.90;;;;;;4997637;28;20491;-43
2021/06/14 05:19:00;;;;;;;5.27;4.80;;;14.40;99.90;;;;;;4997574;28;20921;-43
2021/06/14 05:21:27;;;;;;;7.00;6.40;;;14.80;99.90;;;;;;4997561;28;20481;-44
2021/06/14 05:23:55;;;;;;;5.60;5.10;;;15.10;99.90;;;;;;4997750;28;20519;-46
2021/06/14 05:26:22;;;;;;;10.60;5.73;;;15.20;99.90;;;;;;4997742;28;20469;-47
2021/06/14 05:28:49;;;;;;;8.47;5.50;;;15.40;99.90;;;;;;4997995;28;20913;-44
2021/06/14 05:31:16;;;;;;;8.20;5.63;;;15.60;99.90;;;;;;4997635;28;20484;-48
2021/06/14 05:33:43;;;;;;;8.53;5.27;;;15.80;99.90;;;;;;4997406;28;20811;-52
2021/06/14 05:36:10;;;;;;;7.50;5.10;;;15.90;99.90;;;;;;4997630;28;20468;-48
2021/06/14 05:38:38;;;;;;;7.97;5.50;;;16.00;99.90;;;;;;4997102;28;20785;-47
2021/06/14 05:41:06;;;;;;;7.63;5.40;;;16.30;99.90;;;;;;4997674;28;20469;-50
2021/06/14 05:43:33;;;;;;;7.20;5.10;;;16.60;99.90;;;;;;4997311;28;20489;-47
2021/06/14 05:46:00;;;;;;;8.00;5.20;;;16.90;99.90;;;;;;4997043;28;20472;-44
2021/06/14 05:48:27;;;;;;;7.10;4.20;;;17.10;99.90;;;;;;4997556;28;20926;-44
2021/06/14 05:50:57;;;;;;;7.50;5.00;;;17.40;99.90;;;;;;4997317;28;20464;-44
2021/06/14 05:53:24;;;;;;;7.03;4.73;;;17.70;99.80;;;;;;4997601;28;20463;-44
2021/06/14 05:55:52;;;;;;;5.80;5.10;;;18.00;94.40;;;;;;4996760;28;20465;-48
2021/06/14 05:58:20;;;;;;;5.90;4.30;;;18.10;94.40;;;;;;4997176;28;20457;-44
2021/06/14 06:00:49;;;;;;;6.00;4.77;;;18.40;92.70;;;;;;5001545;28;20472;-44
2021/06/14 06:03:16;;;;;;;7.27;4.53;;;18.70;91.40;;;;;;4994644;28;20528;-45
2021/06/14 06:05:43;;;;;;;5.30;4.20;;;19.00;87.90;;;;;;4998334;28;20481;-46
2021/06/14 06:08:10;;;;;;;6.57;4.30;;;19.20;89.10;;;;;;5000059;28;20503;-44
2021/06/14 06:10:40;;;;;;;9.53;4.80;;;19.40;86.00;;;;;;5001020;28;20796;-44
2021/06/14 06:13:07;;;;;;;6.73;5.33;;;19.60;81.40;;;;;;5001281;28;20508;-44
2021/06/14 06:15:36;;;;;;;5.63;5.03;;;19.80;81.80;;;;;;5000823;28;20472;-45
2021/06/14 06:18:05;;;;;;;12.63;6.10;;;20.20;80.70;;;;;;5000256;28;20468;-49
2021/06/14 06:20:32;;;;;;;4.20;3.50;;;20.40;79.00;;;;;;5000050;28;20464;-50
2021/06/14 06:22:59;;;;;;;5.00;4.37;;;20.60;75.10;;;;;;5000366;28;20485;-50
2021/06/14 06:25:28;;;;;;;5.53;4.63;;;20.80;72.00;;;;;;5000292;28;20468;-51
2021/06/14 06:27:55;;;;;;;7.13;5.33;;;21.00;72.10;;;;;;5000292;28;20475;-45
2021/06/14 06:30:25;;;;;;;10.73;5.50;;;21.00;70.10;;;;;;5001151;28;20472;-48
2021/06/14 06:32:54;;;;;;;6.53;4.40;;;21.10;68.30;;;;;;5000779;28;20467;-48
2021/06/14 06:35:21;;;;;;;4.50;4.07;;;21.30;68.90;;;;;;5000242;28;20471;-45
2021/06/14 06:37:49;;;;;;;5.03;4.57;;;21.20;66.50;;;;;;5000421;28;20894;-45
2021/06/14 06:40:19;;;;;;;4.60;4.17;;;21.30;66.60;;;;;;5000476;28;20881;-45
2021/06/14 06:42:51;;;;;;;4.37;3.97;;;21.50;64.90;;;;;;5000521;28;20784;-45
2021/06/14 06:45:18;;;;;;;5.00;4.13;;;21.90;65.50;;;;;;5000075;28;20577;-47
2021/06/14 06:47:48;;;;;;;5.97;4.73;;;21.90;62.10;;;;;;5000294;28;20938;-44
2021/06/14 06:50:21;;;;;;;6.57;5.17;;;21.80;62.10;;;;;;5000880;28;20762;-47
2021/06/14 06:52:48;;;;;;;5.77;5.13;;;22.00;60.80;;;;;;5003500;28;20766;-46
2021/06/14 06:55:16;;;;;;;5.90;5.00;;;22.00;63.00;;;;;;5001392;28;20465;-46
2021/06/14 06:57:44;;;;;;;5.53;4.60;;;22.40;60.10;;;;;;5000509;28;20461;-47
2021/06/14 07:00:17;;;;;;;5.60;4.97;;;22.40;59.20;;;;;;5002720;28;20886;-45
2021/06/14 07:41:56;;;;;;;9.20;4.80;;;24.10;53.80;;;;;;4997996;28;20496;-51
2021/06/14 07:44:23;;;;;;;4.80;4.03;;;24.30;55.00;;;;;;5000366;28;20496;-52
2021/06/14 07:46:50;;;;;;;6.07;5.00;;;24.30;53.00;;;;;;4999826;28;20789;-57
2021/06/14 07:49:21;;;;;;;5.20;4.40;;;24.40;53.00;;;;;;4999904;28;20469;-55
2021/06/14 07:51:48;;;;;;;5.47;4.63;;;24.80;54.50;;;;;;5000079;28;20440;-54
2021/06/14 07:54:16;;;;;;;5.80;5.00;;;25.20;52.50;;;;;;4999189;28;20796;-55
2021/06/14 07:56:47;;;;;;;4.90;3.97;;;25.60;51.50;;;;;;4999765;28;20469;-55
2021/06/14 07:59:20;;;;;;;5.80;4.33;;;25.80;51.60;;;;;;4998984;28;20465;-52
2021/06/14 08:01:54;;;;;;;5.10;4.60;;;26.00;50.30;;;;;;5000344;28;20752;-54
2021/06/14 08:04:23;;;;;;;4.30;3.97;;;25.60;50.00;;;;;;4991606;28;20496;-55
2021/06/14 08:06:50;;;;;;;6.73;4.83;;;25.40;50.10;;;;;;4999307;28;20461;-55
2021/06/14 08:09:24;;;;;;;4.73;4.33;;;25.20;51.20;;;;;;4998407;28;20461;-52
2021/06/14 08:11:53;;;;;;;7.47;5.33;;;25.30;50.60;;;;;;4999049;28;20469;-53
2021/06/14 08:14:22;;;;;;;6.83;4.97;;;25.40;50.50;;;;;;4998012;28;20843;-53
2021/06/14 08:16:50;;;;;;;5.87;4.50;;;25.50;50.80;;;;;;4998856;28;20439;-52
2021/06/14 08:19:24;;;;;;;4.80;4.40;;;25.50;50.40;;;;;;5000713;28;20469;-52
2021/06/14 08:22:25;;;;;;;6.53;5.10;;;25.80;51.10;;;;;;4997777;28;20522;-52
2021/06/14 08:25:04;;;;;;;5.40;4.90;;;26.00;50.00;;;;;;4998659;28;20503;-52
2021/06/14 08:27:37;;;;;;;5.47;4.90;;;26.10;49.30;;;;;;4999561;28;20471;-54
2021/06/14 08:30:11;;;;;;;6.20;4.33;;;26.20;50.10;;;;;;4997556;28;20465;-51
2021/06/14 08:32:39;;;;;;;4.73;4.23;;;26.50;49.30;;;;;;4998227;28;20469;-56
2021/06/14 08:35:12;;;;;;;5.47;4.00;;;26.60;48.50;;;;;;4998661;28;20882;-53
2021/06/14 09:16:11;;;;;;;6.23;4.87;;;27.90;45.20;;;;;;3227494;23;20587;-52
2021/06/14 09:18:43;;;;;;;4.93;4.53;;;27.40;44.80;;;;;;4998870;28;20563;-48
2021/06/14 09:21:12;;;;;;;4.90;4.50;;;27.40;45.50;;;;;;4997964;28;20460;-52
2021/06/14 09:23:43;;;;;;;5.73;4.70;;;27.60;44.80;;;;;;4997646;28;20591;-55
2021/06/14 09:26:23;;;;;;;5.10;4.43;;;27.60;43.50;;;;;;4997851;28;20492;-55
2021/06/14 09:28:51;;;;;;;5.97;4.83;;;27.90;44.80;;;;;;4997997;28;20442;-57
2021/06/14 09:31:23;;;;;;;5.30;4.47;;;28.50;43.20;;;;;;5002274;28;20465;-56
2021/06/14 09:33:51;;;;;;;4.67;4.20;;;28.30;43.00;;;;;;5011918;28;20465;-56
2021/06/14 09:36:21;;;;;;;5.73;4.60;;;28.30;42.30;;;;;;5013148;28;20468;-56
2021/06/14 09:38:49;;;;;;;5.00;4.20;;;28.40;42.40;;;;;;5012637;28;20904;-56
2021/06/14 09:41:18;;;;;;;5.47;4.50;;;28.70;41.70;;;;;;5010935;28;20464;-53
2021/06/14 09:43:49;;;;;;;4.90;4.50;;;28.40;41.60;;;;;;5013077;28;20493;-56
2021/06/14 09:46:32;;;;;;;4.83;4.43;;;28.30;42.90;;;;;;5011208;28;20460;-55
2021/06/14 09:49:01;;;;;;;4.87;4.47;;;28.40;41.30;;;;;;5014200;28;20472;-52
2021/06/14 09:51:31;;;;;;;5.93;5.33;;;28.60;41.60;;;;;;5006317;28;20489;-52
2021/06/14 09:54:02;;;;;;;6.90;5.63;;;29.20;43.70;;;;;;5004600;28;20464;-51
2021/06/14 09:56:35;;;;;;;5.73;3.90;;;29.60;42.10;;;;;;5004582;28;20816;-51
2021/06/14 09:59:03;;;;;;;6.73;5.00;;;29.40;42.00;;;;;;5002202;28;20524;-55
2021/06/14 10:01:33;;;;;;;6.20;5.10;;;29.70;41.60;;;;;;5001592;28;20504;-53
2021/06/14 10:04:05;;;;;;;7.50;5.33;;;29.30;41.00;;;;;;4992049;28;20536;-51
2021/06/14 10:06:35;;;;;;;5.63;5.13;;;29.00;41.50;;;;;;4996131;28;20897;-52
2021/06/14 10:09:03;;;;;;;5.50;5.00;;;29.80;42.40;;;;;;5001297;28;20461;-51
2021/06/14 10:11:37;;;;;;;5.03;4.63;;;29.80;41.00;;;;;;5000673;28;20870;-49
2021/06/14 10:14:10;;;;;;;4.60;4.30;;;30.00;39.50;;;;;;5000276;28;20779;-51
2021/06/14 10:16:40;;;;;;;5.33;4.93;;;29.70;39.30;;;;;;5000744;28;20495;-52
2021/06/14 10:19:10;;;;;;;5.87;4.80;;;29.90;39.20;;;;;;5001433;28;20464;-52
2021/06/14 10:21:41;;;;;;;5.57;5.07;;;30.00;40.30;;;;;;5000573;28;20891;-50
2021/06/14 10:24:10;;;;;;;5.10;4.20;;;29.50;40.20;;;;;;5001125;28;20497;-55
2021/06/14 10:26:39;;;;;;;5.20;4.80;;;29.50;40.50;;;;;;5000628;28;20978;-45
2021/06/14 10:29:08;;;;;;;5.63;5.13;;;29.80;40.70;;;;;;5001128;28;20874;-47
2021/06/14 10:31:36;;;;;;;5.20;4.67;;;30.50;41.80;;;;;;5000397;28;20465;-54
2021/06/14 10:34:05;;;;;;;5.50;5.00;;;31.00;40.30;;;;;;5001472;28;20480;-53
2021/06/14 10:36:35;;;;;;;6.03;4.90;;;31.00;39.40;;;;;;5000307;28;20460;-52
2021/06/14 10:39:04;;;;;;;5.23;4.73;;;31.40;40.70;;;;;;5000794;28;20461;-55
2021/06/14 10:41:32;;;;;;;5.40;4.90;;;31.90;38.90;;;;;;4999897;28;20472;-50
2021/06/14 10:43:59;;;;;;;8.33;5.00;;;31.60;37.80;;;;;;4999806;28;20933;-49
2021/06/14 10:46:27;;;;;;;5.47;4.97;;;31.60;37.30;;;;;;4999623;28;20465;-47
2021/06/14 10:48:56;;;;;;;4.83;4.53;;;31.30;39.00;;;;;;5000454;28;20461;-51
2021/06/14 10:51:26;;;;;;;5.10;4.70;;;31.20;36.70;;;;;;5000254;28;20878;-53
2021/06/14 10:54:04;;;;;;;4.70;4.30;;;31.20;38.00;;;;;;5000526;28;20778;-53
2021/06/14 10:56:31;;;;;;;4.47;4.07;;;31.50;37.40;;;;;;4999842;28;20464;-55
2021/06/14 10:59:00;;;;;;;5.33;4.80;;;31.20;36.40;;;;;;4999423;28;20483;-55
2021/06/14 11:01:32;;;;;;;4.93;4.53;;;31.40;35.30;;;;;;4998237;28;20473;-54
2021/06/14 11:04:03;;;;;;;5.27;4.87;;;31.30;36.00;;;;;;4988230;28;20517;-55
2021/06/14 11:06:33;;;;;;;5.60;5.20;;;31.80;37.70;;;;;;4999613;28;20464;-54
2021/06/14 11:09:11;;;;;;;4.77;4.07;;;32.40;36.20;;;;;;5000569;28;20940;-54
2021/06/14 11:11:50;;;;;;;4.57;4.13;;;32.60;35.90;;;;;;4999612;28;20495;-56
2021/06/14 11:14:35;;;;;;;5.60;4.80;;;32.80;33.80;;;;;;4999733;28;20460;-56
2021/06/14 11:17:16;;;;;;;4.50;4.20;;;32.70;34.00;;;;;;4998759;28;20492;-56
2021/06/14 11:19:44;;;;;;;4.77;4.23;;;32.80;35.70;;;;;;5000346;28;20920;-57
2021/06/14 11:22:14;;;;;;;8.07;7.37;;;32.30;34.20;;;;;;4999299;28;20533;-56
2021/06/14 11:24:42;;;;;;;4.87;4.47;;;32.00;34.20;;;;;;4999577;28;20520;-53
2021/06/14 11:27:10;;;;;;;5.20;4.30;;;32.30;34.40;;;;;;4998325;28;20468;-55
2021/06/14 11:29:49;;;;;;;4.33;3.93;;;32.60;36.70;;;;;;5007721;28;20566;-54
2021/06/14 11:32:20;;;;;;;4.40;4.00;;;32.90;34.00;;;;;;5005594;28;20464;-56
2021/06/14 11:34:59;;;;;;;4.37;3.97;;;32.50;33.80;;;;;;5008873;28;20473;-55
2021/06/14 11:37:42;;;;;;;4.73;4.10;;;32.10;33.60;;;;;;5010369;28;20471;-56
2021/06/14 11:40:12;;;;;;;5.03;4.63;;;32.20;35.40;;;;;;5010218;28;20462;-53
2021/06/14 11:42:47;;;;;;;4.93;4.47;;;32.00;34.30;;;;;;4998246;28;20460;-53
2021/06/14 11:45:30;;;;;;;4.47;4.10;;;32.50;35.80;;;;;;4998303;28;20502;-53
2021/06/14 11:48:01;;;;;;;5.57;4.60;;;32.80;36.00;;;;;;4996613;28;20475;-55
2021/06/14 11:50:37;;;;;;;4.23;3.93;;;33.00;35.00;;;;;;4999390;28;20920;-56
2021/06/14 11:53:07;;;;;;;5.27;4.07;;;33.70;33.40;;;;;;4999186;28;20463;-53
2021/06/14 11:55:36;;;;;;;5.63;4.20;;;33.80;32.50;;;;;;4998710;28;20487;-54
2021/06/14 11:58:06;;;;;;;5.40;3.90;;;33.40;32.10;;;;;;4999192;28;20468;-56
2021/06/14 12:00:36;;;;;;;7.90;4.77;;;33.60;34.30;;;;;;4999077;28;20467;-57
2021/06/14 12:03:17;;;;;;;4.20;3.80;;;34.00;33.70;;;;;;4993079;28;20511;-57
2021/06/14 12:05:44;;;;;;;4.37;3.57;;;33.60;32.00;;;;;;4995004;28;20500;-50
2021/06/14 12:48:32;;;;;;;5.07;4.67;;;34.00;32.80;;;;;;4996033;28;20944;-54
2021/06/14 12:51:02;;;;;;;5.07;4.63;;;33.80;32.00;;;;;;4998295;28;20722;-55
2021/06/14 12:53:29;;;;;;;4.80;3.90;;;34.20;32.90;;;;;;4998170;28;20756;-54
2021/06/14 12:55:59;;;;;;;4.37;4.07;;;34.50;32.30;;;;;;4998167;28;20500;-54
2021/06/14 12:58:27;;;;;;;4.73;4.30;;;34.40;31.60;;;;;;4998010;28;20436;-52
2021/06/14 13:00:57;;;;;;;5.10;4.10;;;33.70;31.40;;;;;;4997840;28;20475;-49
2021/06/14 13:03:29;;;;;;;4.70;4.30;;;33.90;32.40;;;;;;4991409;28;20476;-53
2021/06/14 13:05:58;;;;;;;4.63;3.93;;;33.70;32.80;;;;;;4995529;28;20515;-51
2021/06/14 13:08:33;;;;;;;5.53;5.00;;;32.90;31.90;;;;;;4997479;28;20457;-54
2021/06/14 13:11:01;;;;;;;4.33;3.93;;;32.80;31.50;;;;;;4997608;28;20464;-54
2021/06/14 13:13:30;;;;;;;4.37;4.07;;;32.90;33.40;;;;;;4997059;28;20453;-55
2021/06/14 13:16:05;;;;;;;4.07;3.77;;;32.90;33.40;;;;;;4997628;28;20499;-54
2021/06/14 13:18:33;;;;;;;4.10;3.70;;;32.50;32.70;;;;;;4998493;28;20798;-56
2021/06/14 13:21:08;;;;;;;4.10;3.73;;;33.10;32.70;;;;;;4997794;28;20460;-52
2021/06/14 13:23:48;;;;;;;5.87;4.17;;;33.50;31.40;;;;;;4992921;28;20471;-56
2021/06/14 13:26:16;;;;;;;5.30;4.40;;;32.90;31.40;;;;;;4981252;28;20857;-53
2021/06/14 13:28:46;;;;;;;4.50;4.20;;;33.80;32.60;;;;;;4997520;28;20970;-55
2021/06/14 13:31:21;;;;;;;4.67;4.37;;;34.40;31.00;;;;;;4997884;28;20472;-56
2021/06/14 13:34:06;;;;;;;5.13;3.70;;;34.70;30.50;;;;;;4997845;28;20506;-56
2021/06/14 13:36:36;;;;;;;4.40;4.10;;;34.50;30.60;;;;;;4997244;28;20448;-52
2021/06/14 13:39:06;;;;;;;4.23;3.97;;;34.40;30.00;;;;;;4997337;28;20786;-55
2021/06/14 13:41:34;;;;;;;4.97;4.47;;;34.00;31.30;;;;;;4997482;28;20464;-56
2021/06/14 13:44:08;;;;;;;4.07;3.77;;;33.60;31.30;;;;;;4997943;28;20506;-49
2021/06/14 13:46:40;;;;;;;3.80;3.47;;;34.00;30.80;;;;;;4996872;28;20533;-55
2021/06/14 13:49:10;;;;;;;4.50;4.10;;;34.00;29.90;;;;;;4997047;28;20471;-54
2021/06/14 13:51:38;;;;;;;4.50;4.20;;;33.80;30.30;;;;;;4996985;28;20483;-55
2021/06/14 13:54:14;;;;;;;5.43;3.70;;;33.80;30.40;;;;;;4997395;28;20472;-56
2021/06/14 13:56:50;;;;;;;3.90;3.70;;;33.50;30.70;;;;;;4997326;28;20464;-51
2021/06/14 13:59:19;;;;;;;5.50;4.60;;;33.20;30.00;;;;;;4997212;28;20755;-53
2021/06/14 14:01:47;;;;;;;4.47;4.07;;;32.90;29.90;;;;;;4995429;28;20476;-53
2021/06/14 14:04:19;;;;;;;4.57;4.17;;;32.80;30.00;;;;;;4988576;28;20476;-51
2021/06/14 14:06:48;;;;;;;4.40;3.90;;;33.30;30.30;;;;;;4996189;28;20464;-49
2021/06/14 14:09:17;;;;;;;4.90;4.50;;;33.70;30.50;;;;;;4996146;28;20472;-49
2021/06/14 14:11:45;;;;;;;5.30;4.00;;;33.50;30.30;;;;;;4996416;28;20463;-48
2021/06/14 14:14:14;;;;;;;4.63;4.33;;;33.70;30.70;;;;;;4996574;28;20905;-52
2021/06/14 14:16:44;;;;;;;5.87;3.93;;;33.70;29.70;;;;;;4996465;28;20496;-55
2021/06/14 14:19:13;;;;;;;6.33;4.40;;;33.70;29.80;;;;;;4997296;28;20463;-45
2021/06/14 14:21:41;;;;;;;5.33;4.57;;;33.20;30.50;;;;;;5000360;28;20475;-53
2021/06/14 14:24:10;;;;;;;5.10;4.33;;;33.30;30.80;;;;;;5001174;28;20460;-49
2021/06/14 14:26:40;;;;;;;4.77;4.37;;;33.70;30.80;;;;;;5000144;28;20460;-52
2021/06/14 14:29:10;;;;;;;7.67;4.40;;;33.50;30.70;;;;;;5000220;28;20471;-50
2021/06/14 14:31:40;;;;;;;5.87;3.53;;;32.50;31.60;;;;;;5000105;28;20468;-49
2021/06/14 14:34:07;;;;;;;4.67;4.00;;;33.00;30.70;;;;;;5000647;28;20471;-55
2021/06/14 14:36:40;;;;;;;5.00;4.60;;;33.00;30.30;;;;;;4999780;28;20502;-53
2021/06/14 14:39:14;;;;;;;8.23;4.63;;;33.10;30.70;;;;;;5000065;28;20439;-55
2021/06/14 14:41:44;;;;;;;5.07;4.50;;;33.40;30.90;;;;;;5000620;28;20465;-55
2021/06/14 14:44:11;;;;;;;4.40;4.00;;;33.60;30.40;;;;;;5000308;28;20508;-53
2021/06/14 14:46:38;;;;;;;4.77;4.20;;;33.60;30.20;;;;;;5001998;28;20460;-51
2021/06/14 14:49:08;;;;;;;5.30;4.80;;;33.60;30.20;;;;;;5019873;28;20779;-53
2021/06/14 14:51:37;;;;;;;4.33;3.87;;;33.20;30.70;;;;;;5019840;28;20517;-49
2021/06/14 15:31:04;;;;;;;16.43;5.87;;;31.90;31.60;;;;;;3024672;23;20493;-53
2021/06/14 15:33:36;;;;;;;3.73;3.43;;;31.70;29.80;;;;;;4999890;28;20466;-56
2021/06/14 15:36:04;;;;;;;4.33;3.93;;;31.60;31.10;;;;;;4999109;28;20949;-51
2021/06/14 15:38:35;;;;;;;6.70;4.80;;;31.80;32.80;;;;;;4999247;28;20893;-55
2021/06/14 15:41:02;;;;;;;8.00;5.00;;;31.70;32.80;;;;;;4999244;28;20539;-56
2021/06/14 15:43:35;;;;;;;5.67;4.80;;;32.00;32.80;;;;;;4999251;28;20531;-54
2021/06/14 15:46:09;;;;;;;6.57;5.10;;;31.70;32.10;;;;;;4998902;28;20520;-54
2021/06/14 15:48:38;;;;;;;5.07;4.67;;;31.70;32.30;;;;;;4998871;28;20472;-50
2021/06/14 15:51:06;;;;;;;5.13;4.20;;;31.60;32.00;;;;;;4997139;28;20465;-54
2021/06/14 15:53:33;;;;;;;6.80;4.33;;;31.80;32.00;;;;;;4994802;28;20471;-55
2021/06/14 15:56:01;;;;;;;5.47;4.83;;;32.00;32.00;;;;;;4996630;28;20489;-52
2021/06/14 15:58:28;;;;;;;4.77;4.40;;;31.90;31.80;;;;;;4990022;28;20523;-53
2021/06/14 16:00:57;;;;;;;6.17;5.57;;;31.80;31.50;;;;;;4998181;28;20484;-47
2021/06/14 16:03:25;;;;;;;5.90;5.40;;;31.30;34.00;;;;;;4991634;28;20559;-53
2021/06/14 16:05:52;;;;;;;10.30;8.60;;;31.00;33.60;;;;;;4995993;28;20473;-51
2021/06/14 16:08:20;;;;;;;7.63;6.93;;;30.30;33.40;;;;;;4998211;28;20443;-53
2021/06/14 16:10:47;;;;;;;6.97;6.37;;;30.60;34.20;;;;;;4997363;28;20465;-56
2021/06/14 16:13:16;;;;;;;5.23;4.83;;;30.30;34.90;;;;;;4997793;28;20465;-56
2021/06/14 16:15:43;;;;;;;5.73;4.90;;;30.80;34.40;;;;;;4998376;28;20520;-47
2021/06/14 16:18:11;;;;;;;6.37;5.50;;;30.90;34.10;;;;;;4998438;28;20473;-54
2021/06/14 16:20:42;;;;;;;4.23;3.83;;;30.80;34.80;;;;;;4997908;28;20754;-55
2021/06/14 16:23:12;;;;;;;4.77;4.37;;;30.10;34.00;;;;;;4998198;28;20496;-55
2021/06/14 16:25:39;;;;;;;4.70;4.30;;;30.10;35.10;;;;;;4997739;28;20440;-54
2021/06/14 16:28:07;;;;;;;5.50;4.63;;;29.80;35.00;;;;;;4998036;28;20907;-56
2021/06/14 16:30:38;;;;;;;5.30;4.80;;;30.10;35.90;;;;;;4997343;28;20576;-57
2021/06/14 16:33:05;;;;;;;5.83;4.90;;;30.00;35.60;;;;;;4996916;28;20483;-57
2021/06/14 16:35:32;;;;;;;7.30;4.70;;;30.30;35.90;;;;;;4998077;28;20518;-57
2021/06/14 16:38:02;;;;;;;4.70;4.30;;;30.20;35.50;;;;;;4997152;28;20467;-57
2021/06/14 16:40:31;;;;;;;4.00;3.70;;;30.30;35.70;;;;;;4996365;28;20475;-53
2021/06/14 16:43:02;;;;;;;9.87;5.67;;;30.20;35.40;;;;;;4998096;28;20480;-56
2021/06/14 16:45:32;;;;;;;4.60;4.30;;;30.10;35.70;;;;;;4997395;28;20469;-52
2021/06/14 16:48:00;;;;;;;6.40;4.50;;;30.50;35.50;;;;;;4996811;28;20473;-50
2021/06/14 16:50:28;;;;;;;5.10;4.67;;;29.90;35.20;;;;;;4997690;28;20920;-49